sensor_id;sensor_type;location;lat;lon;timestamp;temperature;humidity
59015;DHT22;44799;53.382;14.666;2022-07-29T00:00:58;15.70;96.10
59015;DHT22;44799;53.382;14.666;2022-07-29T00:03:24;15.70;96.30
59015;DHT22;44799;53.382;14.666;2022-07-29T00:05:50;15.70;96.10
59015;DHT22;44799;53.382;14.666;2022-07-29T00:08:17;15.70;96.30
59015;DHT22;44799;53.382;14.666;2022-07-29T00:10:43;15.70;96.60
59015;DHT22;44799;53.382;14.666;2022-07-29T00:13:09;15.60;96.60
59015;DHT22;44799;53.382;14.666;2022-07-29T00:15:35;15.60;96.70
59015;DHT22;44799;53.382;14.666;2022-07-29T00:18:01;15.60;96.70
59015;DHT22;44799;53.382;14.666;2022-07-29T00:20:27;15.50;97.10
59015;DHT22;44799;53.382;14.666;2022-07-29T00:22:53;15.50;97.00
59015;DHT22;44799;53.382;14.666;2022-07-29T00:25:19;15.50;97.10
59015;DHT22;44799;53.382;14.666;2022-07-29T00:27:45;15.50;97.20
59015;DHT22;44799;53.382;14.666;2022-07-29T00:30:12;15.40;97.10
59015;DHT22;44799;53.382;14.666;2022-07-29T00:32:38;15.40;97.00
59015;DHT22;44799;53.382;14.666;2022-07-29T00:35:04;15.30;97.50
59015;DHT22;44799;53.382;14.666;2022-07-29T00:37:49;15.30;97.50
59015;DHT22;44799;53.382;14.666;2022-07-29T00:40:15;15.20;97.50
59015;DHT22;44799;53.382;14.666;2022-07-29T00:42:46;15.20;97.50
59015;DHT22;44799;53.382;14.666;2022-07-29T00:45:13;15.10;97.60
59015;DHT22;44799;53.382;14.666;2022-07-29T00:47:40;15.10;97.80
59015;DHT22;44799;53.382;14.666;2022-07-29T00:50:07;15.10;97.80
59015;DHT22;44799;53.382;14.666;2022-07-29T00:52:36;15.00;97.70
59015;DHT22;44799;53.382;14.666;2022-07-29T00:55:07;15.00;97.80
59015;DHT22;44799;53.382;14.666;2022-07-29T00:57:34;14.90;98.20
59015;DHT22;44799;53.382;14.666;2022-07-29T01:00:01;14.90;98.40
59015;DHT22;44799;53.382;14.666;2022-07-29T01:02:28;14.90;98.40
59015;DHT22;44799;53.382;14.666;2022-07-29T01:04:54;15.00;98.40
59015;DHT22;44799;53.382;14.666;2022-07-29T01:07:24;14.90;98.70
59015;DHT22;44799;53.382;14.666;2022-07-29T01:09:50;14.90;98.80
59015;DHT22;44799;53.382;14.666;2022-07-29T01:12:22;14.90;98.90
59015;DHT22;44799;53.382;14.666;2022-07-29T01:14:49;14.90;98.90
59015;DHT22;44799;53.382;14.666;2022-07-29T01:19:48;14.80;98.90
59015;DHT22;44799;53.382;14.666;2022-07-29T01:28:17;14.80;98.60
59015;DHT22;44799;53.382;14.666;2022-07-29T01:30:50;14.80;98.70
59015;DHT22;44799;53.382;14.666;2022-07-29T01:33:18;14.70;98.80
59015;DHT22;44799;53.382;14.666;2022-07-29T01:36:10;14.70;99.00
59015;DHT22;44799;53.382;14.666;2022-07-29T01:38:39;14.70;99.00
59015;DHT22;44799;53.382;14.666;2022-07-29T01:41:10;14.70;99.40
59015;DHT22;44799;53.382;14.666;2022-07-29T01:44:06;14.60;99.30
59015;DHT22;44799;53.382;14.666;2022-07-29T01:46:37;14.60;99.40
59015;DHT22;44799;53.382;14.666;2022-07-29T01:49:20;14.60;99.40
59015;DHT22;44799;53.382;14.666;2022-07-29T01:51:50;14.50;99.40
59015;DHT22;44799;53.382;14.666;2022-07-29T01:56:43;14.50;99.50
59015;DHT22;44799;53.382;14.666;2022-07-29T01:59:11;14.50;99.70
59015;DHT22;44799;53.382;14.666;2022-07-29T02:01:39;14.50;99.80
59015;DHT22;44799;53.382;14.666;2022-07-29T02:04:07;14.50;99.70
59015;DHT22;44799;53.382;14.666;2022-07-29T02:06:37;14.40;99.70
59015;DHT22;44799;53.382;14.666;2022-07-29T02:09:04;14.40;99.80
59015;DHT22;44799;53.382;14.666;2022-07-29T02:11:31;14.40;99.90
59015;DHT22;44799;53.382;14.666;2022-07-29T02:14:00;14.40;99.90
59015;DHT22;44799;53.382;14.666;2022-07-29T02:16:29;14.30;99.90
59015;DHT22;44799;53.382;14.666;2022-07-29T02:18:57;14.30;99.90
59015;DHT22;44799;53.382;14.666;2022-07-29T02:21:27;14.30;99.90
59015;DHT22;44799;53.382;14.666;2022-07-29T02:23:55;14.30;99.90
59015;DHT22;44799;53.382;14.666;2022-07-29T02:26:23;14.30;99.90
59015;DHT22;44799;53.382;14.666;2022-07-29T02:28:56;14.30;99.90
59015;DHT22;44799;53.382;14.666;2022-07-29T02:31:25;14.30;99.90
59015;DHT22;44799;53.382;14.666;2022-07-29T02:33:53;14.30;99.90
59015;DHT22;44799;53.382;14.666;2022-07-29T02:36:21;14.20;99.90
59015;DHT22;44799;53.382;14.666;2022-07-29T02:38:48;14.20;99.90
59015;DHT22;44799;53.382;14.666;2022-07-29T02:41:28;14.10;99.90
59015;DHT22;44799;53.382;14.666;2022-07-29T02:43:58;14.10;99.90
59015;DHT22;44799;53.382;14.666;2022-07-29T02:46:31;14.10;99.90
59015;DHT22;44799;53.382;14.666;2022-07-29T02:51:58;14.00;99.90
59015;DHT22;44799;53.382;14.666;2022-07-29T02:54:37;14.00;99.90
59015;DHT22;44799;53.382;14.666;2022-07-29T02:57:20;14.00;99.90
59015;DHT22;44799;53.382;14.666;2022-07-29T02:59:48;13.90;99.90
59015;DHT22;44799;53.382;14.666;2022-07-29T03:02:16;13.90;99.90
59015;DHT22;44799;53.382;14.666;2022-07-29T03:04:43;13.90;99.90
59015;DHT22;44799;53.382;14.666;2022-07-29T03:07:12;13.90;99.90
59015;DHT22;44799;53.382;14.666;2022-07-29T03:09:40;13.80;99.90
59015;DHT22;44799;53.382;14.666;2022-07-29T03:12:07;13.80;99.90
59015;DHT22;44799;53.382;14.666;2022-07-29T03:14:33;13.90;99.90
59015;DHT22;44799;53.382;14.666;2022-07-29T03:17:00;13.80;99.90
59015;DHT22;44799;53.382;14.666;2022-07-29T03:19:27;13.80;99.90
59015;DHT22;44799;53.382;14.666;2022-07-29T03:21:56;13.90;99.90
59015;DHT22;44799;53.382;14.666;2022-07-29T03:24:40;13.90;99.90
59015;DHT22;44799;53.382;14.666;2022-07-29T03:27:06;13.90;99.90
59015;DHT22;44799;53.382;14.666;2022-07-29T03:29:32;13.90;99.90
59015;DHT22;44799;53.382;14.666;2022-07-29T03:31:58;13.80;99.90
59015;DHT22;44799;53.382;14.666;2022-07-29T03:34:24;13.90;99.90
59015;DHT22;44799;53.382;14.666;2022-07-29T03:36:50;13.90;99.90
59015;DHT22;44799;53.382;14.666;2022-07-29T03:39:20;13.90;99.90
59015;DHT22;44799;53.382;14.666;2022-07-29T03:41:49;13.90;99.90
59015;DHT22;44799;53.382;14.666;2022-07-29T03:44:16;13.90;99.90
59015;DHT22;44799;53.382;14.666;2022-07-29T03:46:44;13.90;99.90
59015;DHT22;44799;53.382;14.666;2022-07-29T03:49:11;14.00;99.90
59015;DHT22;44799;53.382;14.666;2022-07-29T03:51:39;14.00;99.90
59015;DHT22;44799;53.382;14.666;2022-07-29T03:54:05;14.00;99.90
59015;DHT22;44799;53.382;14.666;2022-07-29T03:56:34;14.00;99.90
59015;DHT22;44799;53.382;14.666;2022-07-29T03:59:02;14.00;99.90
59015;DHT22;44799;53.382;14.666;2022-07-29T04:01:29;14.10;99.90
59015;DHT22;44799;53.382;14.666;2022-07-29T04:03:55;14.10;99.90
59015;DHT22;44799;53.382;14.666;2022-07-29T04:06:22;14.10;99.90
59015;DHT22;44799;53.382;14.666;2022-07-29T04:08:47;14.20;99.90
59015;DHT22;44799;53.382;14.666;2022-07-29T04:11:13;14.20;99.90
59015;DHT22;44799;53.382;14.666;2022-07-29T04:13:39;14.20;99.90
59015;DHT22;44799;53.382;14.666;2022-07-29T04:16:05;14.30;99.90
59015;DHT22;44799;53.382;14.666;2022-07-29T04:18:31;14.30;99.90
59015;DHT22;44799;53.382;14.666;2022-07-29T04:20:57;14.30;99.90
59015;DHT22;44799;53.382;14.666;2022-07-29T04:23:29;14.40;99.90
59015;DHT22;44799;53.382;14.666;2022-07-29T04:25:58;14.50;99.90
59015;DHT22;44799;53.382;14.666;2022-07-29T04:28:26;14.50;99.90
59015;DHT22;44799;53.382;14.666;2022-07-29T04:30:52;14.50;99.90
59015;DHT22;44799;53.382;14.666;2022-07-29T04:33:18;14.60;99.90
59015;DHT22;44799;53.382;14.666;2022-07-29T04:35:43;14.60;99.90
59015;DHT22;44799;53.382;14.666;2022-07-29T04:38:09;14.70;99.90
59015;DHT22;44799;53.382;14.666;2022-07-29T04:40:35;14.70;99.90
59015;DHT22;44799;53.382;14.666;2022-07-29T04:43:01;14.70;99.90
59015;DHT22;44799;53.382;14.666;2022-07-29T04:45:27;14.80;99.90
59015;DHT22;44799;53.382;14.666;2022-07-29T04:47:54;14.90;99.90
59015;DHT22;44799;53.382;14.666;2022-07-29T04:50:21;14.90;99.90
59015;DHT22;44799;53.382;14.666;2022-07-29T04:52:47;15.00;99.90
59015;DHT22;44799;53.382;14.666;2022-07-29T04:55:13;15.10;99.90
59015;DHT22;44799;53.382;14.666;2022-07-29T04:57:39;15.10;99.90
59015;DHT22;44799;53.382;14.666;2022-07-29T05:00:07;15.20;99.90
59015;DHT22;44799;53.382;14.666;2022-07-29T05:02:33;15.30;99.90
59015;DHT22;44799;53.382;14.666;2022-07-29T05:04:59;15.40;99.90
59015;DHT22;44799;53.382;14.666;2022-07-29T05:07:25;15.50;99.90
59015;DHT22;44799;53.382;14.666;2022-07-29T05:09:50;15.50;99.90
59015;DHT22;44799;53.382;14.666;2022-07-29T05:12:16;15.60;99.90
59015;DHT22;44799;53.382;14.666;2022-07-29T05:14:42;15.60;99.90
59015;DHT22;44799;53.382;14.666;2022-07-29T05:17:08;15.70;99.90
59015;DHT22;44799;53.382;14.666;2022-07-29T05:19:34;15.80;99.90
59015;DHT22;44799;53.382;14.666;2022-07-29T05:21:59;15.90;99.90
59015;DHT22;44799;53.382;14.666;2022-07-29T05:24:25;16.00;99.90
59015;DHT22;44799;53.382;14.666;2022-07-29T05:26:51;16.00;99.90
59015;DHT22;44799;53.382;14.666;2022-07-29T05:29:17;16.10;99.90
59015;DHT22;44799;53.382;14.666;2022-07-29T05:31:43;16.10;99.90
59015;DHT22;44799;53.382;14.666;2022-07-29T05:34:09;16.20;99.90
59015;DHT22;44799;53.382;14.666;2022-07-29T05:36:34;16.30;99.90
59015;DHT22;44799;53.382;14.666;2022-07-29T05:39:00;16.30;99.90
59015;DHT22;44799;53.382;14.666;2022-07-29T05:41:26;16.30;99.90
59015;DHT22;44799;53.382;14.666;2022-07-29T05:43:52;16.40;99.90
59015;DHT22;44799;53.382;14.666;2022-07-29T05:46:18;16.50;99.90
59015;DHT22;44799;53.382;14.666;2022-07-29T05:48:44;16.50;99.90
59015;DHT22;44799;53.382;14.666;2022-07-29T05:51:09;16.60;99.90
59015;DHT22;44799;53.382;14.666;2022-07-29T05:53:35;16.70;99.90
59015;DHT22;44799;53.382;14.666;2022-07-29T05:56:04;16.70;99.90
59015;DHT22;44799;53.382;14.666;2022-07-29T05:58:31;16.80;99.90
59015;DHT22;44799;53.382;14.666;2022-07-29T06:00:56;16.90;99.90
59015;DHT22;44799;53.382;14.666;2022-07-29T06:03:26;16.90;99.90
59015;DHT22;44799;53.382;14.666;2022-07-29T06:05:52;17.00;99.90
59015;DHT22;44799;53.382;14.666;2022-07-29T06:08:18;17.10;99.90
59015;DHT22;44799;53.382;14.666;2022-07-29T06:10:44;17.20;99.90
59015;DHT22;44799;53.382;14.666;2022-07-29T06:13:12;17.20;99.90
59015;DHT22;44799;53.382;14.666;2022-07-29T06:15:38;17.30;99.90
59015;DHT22;44799;53.382;14.666;2022-07-29T06:18:04;17.50;99.90
59015;DHT22;44799;53.382;14.666;2022-07-29T06:20:33;17.60;99.90
59015;DHT22;44799;53.382;14.666;2022-07-29T06:22:59;17.70;99.90
59015;DHT22;44799;53.382;14.666;2022-07-29T06:25:25;17.80;99.90
59015;DHT22;44799;53.382;14.666;2022-07-29T06:27:52;17.90;99.90
59015;DHT22;44799;53.382;14.666;2022-07-29T06:30:18;18.00;99.90
59015;DHT22;44799;53.382;14.666;2022-07-29T06:32:43;18.20;99.90
59015;DHT22;44799;53.382;14.666;2022-07-29T06:35:09;18.40;99.90
59015;DHT22;44799;53.382;14.666;2022-07-29T06:37:35;18.50;99.60
59015;DHT22;44799;53.382;14.666;2022-07-29T06:40:01;18.70;99.40
59015;DHT22;44799;53.382;14.666;2022-07-29T06:42:47;18.70;99.10
59015;DHT22;44799;53.382;14.666;2022-07-29T06:45:13;18.90;99.00
59015;DHT22;44799;53.382;14.666;2022-07-29T06:47:39;18.90;98.90
59015;DHT22;44799;53.382;14.666;2022-07-29T06:50:05;19.10;98.80
59015;DHT22;44799;53.382;14.666;2022-07-29T06:52:31;19.20;98.30
59015;DHT22;44799;53.382;14.666;2022-07-29T06:54:57;19.30;97.90
59015;DHT22;44799;53.382;14.666;2022-07-29T06:57:23;19.50;97.60
59015;DHT22;44799;53.382;14.666;2022-07-29T06:59:49;19.60;97.60
59015;DHT22;44799;53.382;14.666;2022-07-29T07:02:15;19.70;97.10
59015;DHT22;44799;53.382;14.666;2022-07-29T07:04:40;19.90;97.00
59015;DHT22;44799;53.382;14.666;2022-07-29T07:07:06;20.00;96.70
59015;DHT22;44799;53.382;14.666;2022-07-29T07:09:32;20.10;96.10
59015;DHT22;44799;53.382;14.666;2022-07-29T07:11:58;20.30;95.80
59015;DHT22;44799;53.382;14.666;2022-07-29T07:14:24;20.40;95.50
59015;DHT22;44799;53.382;14.666;2022-07-29T07:16:52;20.60;95.50
59015;DHT22;44799;53.382;14.666;2022-07-29T07:19:17;20.60;94.90
59015;DHT22;44799;53.382;14.666;2022-07-29T07:21:44;20.70;94.90
59015;DHT22;44799;53.382;14.666;2022-07-29T07:24:10;20.80;94.70
59015;DHT22;44799;53.382;14.666;2022-07-29T07:26:36;20.80;94.20
59015;DHT22;44799;53.382;14.666;2022-07-29T07:29:02;20.90;93.80
59015;DHT22;44799;53.382;14.666;2022-07-29T07:31:28;21.10;93.80
59015;DHT22;44799;53.382;14.666;2022-07-29T07:33:54;21.10;93.80
59015;DHT22;44799;53.382;14.666;2022-07-29T07:36:20;21.20;93.60
59015;DHT22;44799;53.382;14.666;2022-07-29T07:38:45;21.20;93.50
59015;DHT22;44799;53.382;14.666;2022-07-29T07:41:11;21.20;93.40
59015;DHT22;44799;53.382;14.666;2022-07-29T07:43:37;21.30;92.90
59015;DHT22;44799;53.382;14.666;2022-07-29T07:46:03;21.30;93.20
59015;DHT22;44799;53.382;14.666;2022-07-29T07:48:29;21.30;93.00
59015;DHT22;44799;53.382;14.666;2022-07-29T07:50:55;21.40;92.80
59015;DHT22;44799;53.382;14.666;2022-07-29T07:53:21;21.30;93.10
59015;DHT22;44799;53.382;14.666;2022-07-29T07:55:47;21.40;92.80
59015;DHT22;44799;53.382;14.666;2022-07-29T07:58:13;21.40;92.70
59015;DHT22;44799;53.382;14.666;2022-07-29T08:00:39;21.40;92.70
59015;DHT22;44799;53.382;14.666;2022-07-29T08:03:05;21.40;92.70
59015;DHT22;44799;53.382;14.666;2022-07-29T08:05:31;21.50;92.50
59015;DHT22;44799;53.382;14.666;2022-07-29T08:07:57;21.60;92.40
59015;DHT22;44799;53.382;14.666;2022-07-29T08:10:23;21.70;92.70
59015;DHT22;44799;53.382;14.666;2022-07-29T08:13:09;21.80;92.30
59015;DHT22;44799;53.382;14.666;2022-07-29T08:15:36;22.00;92.10
59015;DHT22;44799;53.382;14.666;2022-07-29T08:18:02;22.10;91.90
59015;DHT22;44799;53.382;14.666;2022-07-29T08:20:28;22.20;91.30
59015;DHT22;44799;53.382;14.666;2022-07-29T08:22:54;22.30;91.80
59015;DHT22;44799;53.382;14.666;2022-07-29T08:25:20;22.30;91.20
59015;DHT22;44799;53.382;14.666;2022-07-29T08:27:46;22.40;91.20
59015;DHT22;44799;53.382;14.666;2022-07-29T08:30:13;22.50;91.30
59015;DHT22;44799;53.382;14.666;2022-07-29T08:32:39;22.60;91.00
59015;DHT22;44799;53.382;14.666;2022-07-29T08:35:05;22.80;90.70
59015;DHT22;44799;53.382;14.666;2022-07-29T08:37:31;22.80;89.30
59015;DHT22;44799;53.382;14.666;2022-07-29T08:39:57;22.90;89.70
59015;DHT22;44799;53.382;14.666;2022-07-29T08:42:23;23.00;89.40
59015;DHT22;44799;53.382;14.666;2022-07-29T08:44:49;23.10;89.80
59015;DHT22;44799;53.382;14.666;2022-07-29T08:47:16;23.10;88.30
59015;DHT22;44799;53.382;14.666;2022-07-29T08:49:42;23.20;87.60
59015;DHT22;44799;53.382;14.666;2022-07-29T08:52:11;23.30;87.50
59015;DHT22;44799;53.382;14.666;2022-07-29T08:54:39;23.30;87.50
59015;DHT22;44799;53.382;14.666;2022-07-29T08:57:09;23.40;86.80
59015;DHT22;44799;53.382;14.666;2022-07-29T08:59:37;23.40;87.10
59015;DHT22;44799;53.382;14.666;2022-07-29T09:02:07;23.50;86.00
59015;DHT22;44799;53.382;14.666;2022-07-29T09:04:38;23.50;86.00
59015;DHT22;44799;53.382;14.666;2022-07-29T09:07:05;23.60;85.60
59015;DHT22;44799;53.382;14.666;2022-07-29T09:09:33;23.70;85.70
59015;DHT22;44799;53.382;14.666;2022-07-29T09:11:59;23.80;86.80
59015;DHT22;44799;53.382;14.666;2022-07-29T09:14:25;23.90;86.10
59015;DHT22;44799;53.382;14.666;2022-07-29T09:16:54;24.00;85.60
59015;DHT22;44799;53.382;14.666;2022-07-29T09:19:22;24.10;84.20
59015;DHT22;44799;53.382;14.666;2022-07-29T09:21:48;24.10;85.20
59015;DHT22;44799;53.382;14.666;2022-07-29T09:24:36;24.20;83.10
59015;DHT22;44799;53.382;14.666;2022-07-29T09:27:24;24.40;82.20
59015;DHT22;44799;53.382;14.666;2022-07-29T09:30:03;24.50;81.40
59015;DHT22;44799;53.382;14.666;2022-07-29T09:32:29;24.60;80.70
59015;DHT22;44799;53.382;14.666;2022-07-29T09:35:14;24.70;80.20
59015;DHT22;44799;53.382;14.666;2022-07-29T09:37:40;24.80;80.10
59015;DHT22;44799;53.382;14.666;2022-07-29T09:40:20;24.80;79.90
59015;DHT22;44799;53.382;14.666;2022-07-29T09:42:47;24.90;79.50
59015;DHT22;44799;53.382;14.666;2022-07-29T09:45:29;24.90;79.50
59015;DHT22;44799;53.382;14.666;2022-07-29T09:47:55;25.10;79.40
59015;DHT22;44799;53.382;14.666;2022-07-29T09:50:22;25.00;78.30
59015;DHT22;44799;53.382;14.666;2022-07-29T09:52:59;25.10;78.90
59015;DHT22;44799;53.382;14.666;2022-07-29T09:55:25;25.10;78.70
59015;DHT22;44799;53.382;14.666;2022-07-29T09:57:51;25.20;78.60
59015;DHT22;44799;53.382;14.666;2022-07-29T10:00:19;25.20;77.80
59015;DHT22;44799;53.382;14.666;2022-07-29T10:02:46;25.30;77.50
59015;DHT22;44799;53.382;14.666;2022-07-29T10:05:22;25.20;77.10
59015;DHT22;44799;53.382;14.666;2022-07-29T10:07:51;25.10;76.50
59015;DHT22;44799;53.382;14.666;2022-07-29T10:10:31;25.20;76.60
59015;DHT22;44799;53.382;14.666;2022-07-29T10:13:03;25.10;77.70
59015;DHT22;44799;53.382;14.666;2022-07-29T10:15:31;25.20;76.80
59015;DHT22;44799;53.382;14.666;2022-07-29T10:17:58;25.10;76.60
59015;DHT22;44799;53.382;14.666;2022-07-29T10:20:26;25.10;77.00
59015;DHT22;44799;53.382;14.666;2022-07-29T10:22:53;25.20;75.60
59015;DHT22;44799;53.382;14.666;2022-07-29T10:25:19;25.10;76.30
59015;DHT22;44799;53.382;14.666;2022-07-29T10:27:46;25.20;76.30
59015;DHT22;44799;53.382;14.666;2022-07-29T10:30:14;25.30;74.70
59015;DHT22;44799;53.382;14.666;2022-07-29T10:35:54;25.60;75.80
59015;DHT22;44799;53.382;14.666;2022-07-29T10:38:47;25.70;75.50
59015;DHT22;44799;53.382;14.666;2022-07-29T10:44:18;26.00;72.60
59015;DHT22;44799;53.382;14.666;2022-07-29T10:46:46;26.00;71.40
59015;DHT22;44799;53.382;14.666;2022-07-29T10:49:15;26.00;71.70
59015;DHT22;44799;53.382;14.666;2022-07-29T10:52:04;26.10;71.90
59015;DHT22;44799;53.382;14.666;2022-07-29T10:57:15;26.20;70.60
59015;DHT22;44799;53.382;14.666;2022-07-29T10:59:47;26.40;70.00
59015;DHT22;44799;53.382;14.666;2022-07-29T11:05:08;26.60;70.40
59015;DHT22;44799;53.382;14.666;2022-07-29T11:07:37;26.60;69.90
59015;DHT22;44799;53.382;14.666;2022-07-29T11:15:10;26.70;65.30
59015;DHT22;44799;53.382;14.666;2022-07-29T11:31:16;26.90;62.10
59015;DHT22;44799;53.382;14.666;2022-07-29T11:33:45;27.10;61.70
59015;DHT22;44799;53.382;14.666;2022-07-29T11:36:14;27.20;59.30
59015;DHT22;44799;53.382;14.666;2022-07-29T11:38:41;27.30;56.10
59015;DHT22;44799;53.382;14.666;2022-07-29T11:41:26;27.40;55.80
59015;DHT22;44799;53.382;14.666;2022-07-29T11:43:56;27.60;54.90
59015;DHT22;44799;53.382;14.666;2022-07-29T11:46:48;27.70;55.20
59015;DHT22;44799;53.382;14.666;2022-07-29T11:49:23;27.80;54.50
59015;DHT22;44799;53.382;14.666;2022-07-29T11:51:53;27.90;56.40
59015;DHT22;44799;53.382;14.666;2022-07-29T11:54:33;27.90;54.80
59015;DHT22;44799;53.382;14.666;2022-07-29T11:57:00;27.80;55.10
59015;DHT22;44799;53.382;14.666;2022-07-29T11:59:26;27.90;53.90
59015;DHT22;44799;53.382;14.666;2022-07-29T12:01:57;28.00;52.90
59015;DHT22;44799;53.382;14.666;2022-07-29T12:04:24;27.90;54.10
59015;DHT22;44799;53.382;14.666;2022-07-29T12:06:51;27.90;53.60
59015;DHT22;44799;53.382;14.666;2022-07-29T12:09:17;28.00;52.40
59015;DHT22;44799;53.382;14.666;2022-07-29T12:11:44;28.00;52.70
59015;DHT22;44799;53.382;14.666;2022-07-29T12:14:28;28.20;51.90
59015;DHT22;44799;53.382;14.666;2022-07-29T12:16:54;28.40;52.60
59015;DHT22;44799;53.382;14.666;2022-07-29T12:19:19;28.50;53.60
59015;DHT22;44799;53.382;14.666;2022-07-29T12:21:51;28.80;52.90
59015;DHT22;44799;53.382;14.666;2022-07-29T12:24:18;29.00;51.80
59015;DHT22;44799;53.382;14.666;2022-07-29T12:26:57;29.30;52.40
59015;DHT22;44799;53.382;14.666;2022-07-29T12:29:24;29.40;51.50
59015;DHT22;44799;53.382;14.666;2022-07-29T12:31:53;29.40;51.50
59015;DHT22;44799;53.382;14.666;2022-07-29T12:34:22;29.50;52.00
59015;DHT22;44799;53.382;14.666;2022-07-29T12:36:49;29.40;52.10
59015;DHT22;44799;53.382;14.666;2022-07-29T12:39:18;29.30;52.20
59015;DHT22;44799;53.382;14.666;2022-07-29T12:41:44;29.20;52.50
59015;DHT22;44799;53.382;14.666;2022-07-29T12:44:11;28.90;51.80
59015;DHT22;44799;53.382;14.666;2022-07-29T12:46:37;28.90;52.40
59015;DHT22;44799;53.382;14.666;2022-07-29T12:49:03;28.80;52.50
59015;DHT22;44799;53.382;14.666;2022-07-29T12:51:39;28.80;51.50
59015;DHT22;44799;53.382;14.666;2022-07-29T12:54:12;28.80;52.80
59015;DHT22;44799;53.382;14.666;2022-07-29T12:56:40;28.80;52.70
59015;DHT22;44799;53.382;14.666;2022-07-29T12:59:16;28.90;52.70
59015;DHT22;44799;53.382;14.666;2022-07-29T13:01:44;28.90;54.80
59015;DHT22;44799;53.382;14.666;2022-07-29T13:04:10;29.10;53.10
59015;DHT22;44799;53.382;14.666;2022-07-29T13:06:41;29.10;52.50
59015;DHT22;44799;53.382;14.666;2022-07-29T13:09:15;29.30;53.80
59015;DHT22;44799;53.382;14.666;2022-07-29T13:11:47;29.50;53.40
59015;DHT22;44799;53.382;14.666;2022-07-29T13:14:35;29.80;52.20
59015;DHT22;44799;53.382;14.666;2022-07-29T13:19:44;30.50;51.00
59015;DHT22;44799;53.382;14.666;2022-07-29T13:22:21;30.80;50.80
59015;DHT22;44799;53.382;14.666;2022-07-29T13:27:18;31.40;49.30
59015;DHT22;44799;53.382;14.666;2022-07-29T13:29:45;31.70;48.10
59015;DHT22;44799;53.382;14.666;2022-07-29T13:32:12;32.00;48.10
59015;DHT22;44799;53.382;14.666;2022-07-29T13:34:39;32.30;48.80
59015;DHT22;44799;53.382;14.666;2022-07-29T13:37:05;32.20;48.00
59015;DHT22;44799;53.382;14.666;2022-07-29T13:39:31;32.10;47.40
59015;DHT22;44799;53.382;14.666;2022-07-29T13:41:56;32.00;48.50
59015;DHT22;44799;53.382;14.666;2022-07-29T13:44:22;31.90;48.10
59015;DHT22;44799;53.382;14.666;2022-07-29T13:46:48;32.10;48.10
59015;DHT22;44799;53.382;14.666;2022-07-29T13:49:14;32.20;48.50
59015;DHT22;44799;53.382;14.666;2022-07-29T13:51:40;32.60;48.60
59015;DHT22;44799;53.382;14.666;2022-07-29T13:54:06;32.90;46.00
59015;DHT22;44799;53.382;14.666;2022-07-29T13:56:32;33.20;46.20
59015;DHT22;44799;53.382;14.666;2022-07-29T13:58:57;33.70;45.20
59015;DHT22;44799;53.382;14.666;2022-07-29T14:01:24;34.20;45.20
59015;DHT22;44799;53.382;14.666;2022-07-29T14:03:50;34.30;44.60
59015;DHT22;44799;53.382;14.666;2022-07-29T14:06:16;34.40;44.10
59015;DHT22;44799;53.382;14.666;2022-07-29T14:08:42;34.70;44.30
59015;DHT22;44799;53.382;14.666;2022-07-29T14:11:08;34.90;44.50
59015;DHT22;44799;53.382;14.666;2022-07-29T14:13:34;35.00;43.00
59015;DHT22;44799;53.382;14.666;2022-07-29T14:16:00;35.10;42.50
59015;DHT22;44799;53.382;14.666;2022-07-29T14:18:26;35.10;42.30
59015;DHT22;44799;53.382;14.666;2022-07-29T14:20:52;35.20;42.70
59015;DHT22;44799;53.382;14.666;2022-07-29T14:23:18;35.40;42.50
59015;DHT22;44799;53.382;14.666;2022-07-29T14:25:44;35.80;42.60
59015;DHT22;44799;53.382;14.666;2022-07-29T14:28:10;36.00;41.70
59015;DHT22;44799;53.382;14.666;2022-07-29T14:30:36;36.30;40.50
59015;DHT22;44799;53.382;14.666;2022-07-29T14:33:02;36.60;41.90
59015;DHT22;44799;53.382;14.666;2022-07-29T14:35:28;36.90;40.90
59015;DHT22;44799;53.382;14.666;2022-07-29T14:37:54;37.10;41.70
59015;DHT22;44799;53.382;14.666;2022-07-29T14:40:20;37.10;40.20
59015;DHT22;44799;53.382;14.666;2022-07-29T14:42:46;37.10;39.70
59015;DHT22;44799;53.382;14.666;2022-07-29T14:45:11;37.20;40.10
59015;DHT22;44799;53.382;14.666;2022-07-29T14:47:38;37.30;40.50
59015;DHT22;44799;53.382;14.666;2022-07-29T14:50:05;37.50;40.50
59015;DHT22;44799;53.382;14.666;2022-07-29T14:52:31;37.30;39.70
59015;DHT22;44799;53.382;14.666;2022-07-29T14:54:57;37.20;40.00
59015;DHT22;44799;53.382;14.666;2022-07-29T14:57:23;37.20;39.40
59015;DHT22;44799;53.382;14.666;2022-07-29T14:59:49;37.30;40.10
59015;DHT22;44799;53.382;14.666;2022-07-29T15:02:15;37.40;40.40
59015;DHT22;44799;53.382;14.666;2022-07-29T15:04:41;37.70;40.10
59015;DHT22;44799;53.382;14.666;2022-07-29T15:07:07;38.10;39.10
59015;DHT22;44799;53.382;14.666;2022-07-29T15:09:33;38.20;39.10
59015;DHT22;44799;53.382;14.666;2022-07-29T15:11:59;38.50;37.90
59015;DHT22;44799;53.382;14.666;2022-07-29T15:14:25;38.90;38.20
59015;DHT22;44799;53.382;14.666;2022-07-29T15:16:51;38.90;37.70
59015;DHT22;44799;53.382;14.666;2022-07-29T15:19:17;38.60;37.50
59015;DHT22;44799;53.382;14.666;2022-07-29T15:21:42;38.20;38.50
59015;DHT22;44799;53.382;14.666;2022-07-29T15:24:08;37.60;38.00
59015;DHT22;44799;53.382;14.666;2022-07-29T15:26:34;36.90;38.10
59015;DHT22;44799;53.382;14.666;2022-07-29T15:29:00;36.30;39.30
59015;DHT22;44799;53.382;14.666;2022-07-29T15:31:26;35.70;40.00
59015;DHT22;44799;53.382;14.666;2022-07-29T15:33:54;35.10;41.50
59015;DHT22;44799;53.382;14.666;2022-07-29T15:36:20;34.50;42.00
59015;DHT22;44799;53.382;14.666;2022-07-29T15:38:46;34.40;42.40
59015;DHT22;44799;53.382;14.666;2022-07-29T15:41:15;34.40;42.30
59015;DHT22;44799;53.382;14.666;2022-07-29T15:43:44;34.90;41.10
59015;DHT22;44799;53.382;14.666;2022-07-29T15:46:14;35.30;40.50
59015;DHT22;44799;53.382;14.666;2022-07-29T15:48:59;35.50;40.70
59015;DHT22;44799;53.382;14.666;2022-07-29T15:51:25;35.30;41.60
59015;DHT22;44799;53.382;14.666;2022-07-29T15:53:51;34.90;40.30
59015;DHT22;44799;53.382;14.666;2022-07-29T15:56:17;34.70;40.70
59015;DHT22;44799;53.382;14.666;2022-07-29T15:58:42;34.50;40.80
59015;DHT22;44799;53.382;14.666;2022-07-29T16:01:08;34.20;41.30
59015;DHT22;44799;53.382;14.666;2022-07-29T16:03:34;33.70;41.40
59015;DHT22;44799;53.382;14.666;2022-07-29T16:06:00;33.10;43.10
59015;DHT22;44799;53.382;14.666;2022-07-29T16:08:26;32.60;44.30
59015;DHT22;44799;53.382;14.666;2022-07-29T16:10:52;32.10;44.40